Al Rawdah — V7VM8 — position and weather

sailwx.info

Track history (hours):
 
Tides and Currents Weather Stations Pressure Air Temp Water Temp Dewpoint Dewpoint Depression Visibility Wind Speed Wind Dir Waves Ship Positions

Al Rawdah

Last reported at 2016-Jun-24 21:32 UTC. Time now 2016-Jun-24 22:20 UTC.
Position N 44°24' E 008°55'.

Length 307 m; draft 11.5 m.

Type: Ship (hazmat cat A). MMSI: 538004160.

Date/timePositionNaut miles runAvg speedWind from/ knotsBaromVisibWave heightAir tempDewpointWater temp
2016-Jun-24 21:32N 44°24' E 008°55'0 0.0
2016-Jun-24 20:32N 44°24' E 008°55'0 0.0
2016-Jun-24 19:32N 44°24' E 008°55'0 0.0
2016-Jun-24 18:32N 44°24' E 008°55'0 0.0
2016-Jun-24 17:29N 44°24' E 008°55'0 0.0
2016-Jun-24 16:29N 44°24' E 008°55'0 0.0
2016-Jun-24 15:32N 44°24' E 008°55'0 0.0
2016-Jun-24 14:32N 44°24' E 008°55'2 1.9
2016-Jun-24 13:33N 44°23' E 008°57'4 3.5
2016-Jun-24 12:33N 44°20' E 008°59'6 5.7
2016-Jun-24 11:33N 44°16' E 009°04'8 7.7
2016-Jun-24 10:33N 44°10' E 009°12'8 7.9
2016-Jun-24 09:33N 44°05' E 009°20'8 7.8
2016-Jun-24 08:33N 43°59' E 009°28'7 7.3
2016-Jun-24 07:33N 43°54' E 009°35'16 5.4
2016-Jun-24 04:31N 44°06' E 009°51'0 0.0
2016-Jun-24 03:31N 44°06' E 009°51'0 0.0
2016-Jun-24 02:25N 44°06' E 009°51'0 0.0
2016-Jun-24 01:31N 44°06' E 009°51'0 0.0
2016-Jun-24 00:28N 44°06' E 009°51'0 0.0
2016-Jun-23 23:31N 44°06' E 009°51'0 0.0
2016-Jun-23 22:28N 44°06' E 009°51'0 0.0
2016-Jun-23 21:31N 44°06' E 009°51'0 0.0
2016-Jun-23 20:25N 44°06' E 009°51'0 0.0
2016-Jun-23 19:31N 44°06' E 009°51'0 0.0
2016-Jun-23 18:31N 44°06' E 009°51'0 0.0
2016-Jun-23 17:31N 44°06' E 009°51'0 0.3
2016-Jun-23 16:33N 44°06' E 009°51'6 5.7
2016-Jun-23 15:33N 44°01' E 009°55'8 8.3
2016-Jun-23 14:33N 43°53' E 009°53'1717.3
2016-Jun-23 13:33N 43°38' E 009°41'1717.2
2016-Jun-23 12:33N 43°21' E 009°40'2019.6
2016-Jun-23 11:33N 43°01' E 009°38'1919.3
2016-Jun-23 10:33N 42°43' E 009°46'3718.7
2016-Jun-23 08:33N 42°09' E 010°08'2019.2
2016-Jun-23 07:31N 41°56' E 010°28'4019.8
2016-Jun-23 05:30N 41°31' E 011°09'14019.8
2016-Jun-22 22:27N 40°01' E 013°31'2219.9
2016-Jun-22 21:19N 39°47' E 013°54'1619.8
2016-Jun-22 20:31N 39°37' E 014°10'1918.8
2016-Jun-22 19:30N 39°25' E 014°29'1818.6
2016-Jun-22 18:31N 39°13' E 014°47'1819.1
2016-Jun-22 17:33N 39°01' E 015°05'1919.1
2016-Jun-22 16:33N 38°48' E 015°23'2019.5
2016-Jun-22 15:33N 38°31' E 015°36'1615.9
2016-Jun-22 14:34N 38°16' E 015°42'1413.7
2016-Jun-22 13:33N 38°03' E 015°35'1515.4
2016-Jun-22 12:34N 37°49' E 015°41'2020.1
2016-Jun-22 11:33N 37°40' E 016°04'2019.6
2016-Jun-22 10:32N 37°32' E 016°27'2419.7
2016-Jun-22 09:20N 37°22' E 016°54'19519.5
2016-Jun-21 23:19N 35°59' E 020°35'16019.4
2016-Jun-21 15:03N 34°52' E 023°34'1019.4
2016-Jun-21 14:33N 34°48' E 023°44'44619.8
2016-Jun-20 16:04N 31°48' E 031°53'1019.9
2016-Jun-20 15:33N 31°43' E 032°03'2019.7
2016-Jun-20 14:31N 31°29' E 032°21'1212.3
2016-Jun-20 13:33N 31°18' E 032°22'5 4.3
2016-Jun-20 12:25N 31°13' E 032°21'0 0.0
2016-Jun-20 11:07N 31°13' E 032°21'0 0.0
2016-Jun-20 10:31N 31°13' E 032°21'0 0.0
2016-Jun-20 09:25N 31°13' E 032°21'0 0.0
2016-Jun-20 08:28N 31°13' E 032°21'0 0.0
2016-Jun-20 07:19N 31°13' E 032°21'0 0.0
2016-Jun-20 06:28N 31°13' E 032°21'0 0.0
2016-Jun-20 05:28N 31°13' E 032°21'0 0.0
2016-Jun-19 23:19N 31°13' E 032°21'0 0.0
2016-Jun-19 22:31N 31°13' E 032°21'0 0.0
2016-Jun-19 21:31N 31°13' E 032°21'0 0.0
2016-Jun-19 19:31N 31°13' E 032°21'0 0.0
2016-Jun-19 18:16N 31°13' E 032°21'0 0.0
2016-Jun-19 17:31N 31°13' E 032°21'0 0.0
2016-Jun-19 16:31N 31°13' E 032°21'0 0.0
2016-Jun-19 14:33N 31°13' E 032°21'4 4.3
2016-Jun-19 13:33N 31°09' E 032°19'9 8.6
2016-Jun-19 12:33N 31°00' E 032°19'  
Track history (hours):
 
Tides and Currents Weather Stations Pressure Air Temp Water Temp Dewpoint Dewpoint Depression Visibility Wind Speed Wind Dir Waves Ship Positions

Al Rawdah

Last reported at 2016-Jun-24 21:32 UTC. Time now 2016-Jun-24 22:20 UTC.
Position N 44°24' E 008°55'.

Length 307 m; draft 11.5 m.

Type: Ship (hazmat cat A). MMSI: 538004160.

Date/timePositionNaut miles runAvg speedWind from/ knotsBaromVisibWave heightAir tempDewpointWater temp
2016-Jun-24 21:32N 44°24' E 008°55'0 0.0
2016-Jun-24 20:32N 44°24' E 008°55'0 0.0
2016-Jun-24 19:32N 44°24' E 008°55'0 0.0
2016-Jun-24 18:32N 44°24' E 008°55'0 0.0
2016-Jun-24 17:29N 44°24' E 008°55'0 0.0
2016-Jun-24 16:29N 44°24' E 008°55'0 0.0
2016-Jun-24 15:32N 44°24' E 008°55'0 0.0
2016-Jun-24 14:32N 44°24' E 008°55'2 1.9
2016-Jun-24 13:33N 44°23' E 008°57'4 3.5
2016-Jun-24 12:33N 44°20' E 008°59'6 5.7
2016-Jun-24 11:33N 44°16' E 009°04'8 7.7
2016-Jun-24 10:33N 44°10' E 009°12'8 7.9
2016-Jun-24 09:33N 44°05' E 009°20'8 7.8
2016-Jun-24 08:33N 43°59' E 009°28'7 7.3
2016-Jun-24 07:33N 43°54' E 009°35'16 5.4
2016-Jun-24 04:31N 44°06' E 009°51'0 0.0
2016-Jun-24 03:31N 44°06' E 009°51'0 0.0
2016-Jun-24 02:25N 44°06' E 009°51'0 0.0
2016-Jun-24 01:31N 44°06' E 009°51'0 0.0
2016-Jun-24 00:28N 44°06' E 009°51'0 0.0
2016-Jun-23 23:31N 44°06' E 009°51'0 0.0
2016-Jun-23 22:28N 44°06' E 009°51'0 0.0
2016-Jun-23 21:31N 44°06' E 009°51'0 0.0
2016-Jun-23 20:25N 44°06' E 009°51'0 0.0
2016-Jun-23 19:31N 44°06' E 009°51'0 0.0
2016-Jun-23 18:31N 44°06' E 009°51'0 0.0
2016-Jun-23 17:31N 44°06' E 009°51'0 0.3
2016-Jun-23 16:33N 44°06' E 009°51'6 5.7
2016-Jun-23 15:33N 44°01' E 009°55'8 8.3
2016-Jun-23 14:33N 43°53' E 009°53'1717.3
2016-Jun-23 13:33N 43°38' E 009°41'1717.2
2016-Jun-23 12:33N 43°21' E 009°40'2019.6
2016-Jun-23 11:33N 43°01' E 009°38'1919.3
2016-Jun-23 10:33N 42°43' E 009°46'3718.7
2016-Jun-23 08:33N 42°09' E 010°08'2019.2
2016-Jun-23 07:31N 41°56' E 010°28'4019.8
2016-Jun-23 05:30N 41°31' E 011°09'14019.8
2016-Jun-22 22:27N 40°01' E 013°31'2219.9
2016-Jun-22 21:19N 39°47' E 013°54'1619.8
2016-Jun-22 20:31N 39°37' E 014°10'1918.8
2016-Jun-22 19:30N 39°25' E 014°29'1818.6
2016-Jun-22 18:31N 39°13' E 014°47'1819.1
2016-Jun-22 17:33N 39°01' E 015°05'1919.1
2016-Jun-22 16:33N 38°48' E 015°23'2019.5
2016-Jun-22 15:33N 38°31' E 015°36'1615.9
2016-Jun-22 14:34N 38°16' E 015°42'1413.7
2016-Jun-22 13:33N 38°03' E 015°35'1515.4
2016-Jun-22 12:34N 37°49' E 015°41'2020.1
2016-Jun-22 11:33N 37°40' E 016°04'2019.6
2016-Jun-22 10:32N 37°32' E 016°27'2419.7
2016-Jun-22 09:20N 37°22' E 016°54'19519.5
2016-Jun-21 23:19N 35°59' E 020°35'16019.4
2016-Jun-21 15:03N 34°52' E 023°34'1019.4
2016-Jun-21 14:33N 34°48' E 023°44'44619.8
2016-Jun-20 16:04N 31°48' E 031°53'1019.9
2016-Jun-20 15:33N 31°43' E 032°03'2019.7
2016-Jun-20 14:31N 31°29' E 032°21'1212.3
2016-Jun-20 13:33N 31°18' E 032°22'5 4.3
2016-Jun-20 12:25N 31°13' E 032°21'0 0.0
2016-Jun-20 11:07N 31°13' E 032°21'0 0.0
2016-Jun-20 10:31N 31°13' E 032°21'0 0.0
2016-Jun-20 09:25N 31°13' E 032°21'0 0.0
2016-Jun-20 08:28N 31°13' E 032°21'0 0.0
2016-Jun-20 07:19N 31°13' E 032°21'0 0.0
2016-Jun-20 06:28N 31°13' E 032°21'0 0.0
2016-Jun-20 05:28N 31°13' E 032°21'0 0.0
2016-Jun-19 23:19N 31°13' E 032°21'0 0.0
2016-Jun-19 22:31N 31°13' E 032°21'0 0.0
2016-Jun-19 21:31N 31°13' E 032°21'0 0.0
2016-Jun-19 19:31N 31°13' E 032°21'0 0.0
2016-Jun-19 18:16N 31°13' E 032°21'0 0.0
2016-Jun-19 17:31N 31°13' E 032°21'0 0.0
2016-Jun-19 16:31N 31°13' E 032°21'0 0.0
2016-Jun-19 14:33N 31°13' E 032°21'4 4.3
2016-Jun-19 13:33N 31°09' E 032°19'9 8.6
2016-Jun-19 12:33N 31°00' E 032°19'  

Dump ship's entire track history